createdAt,value
2022-12-08T00:01:21.746Z,6.11
2022-12-08T00:03:48.875Z,7.49
2022-12-08T00:06:47.058Z,7.86
2022-12-08T00:09:29.126Z,6.87
2022-12-08T00:11:59.834Z,7.21
2022-12-08T00:14:35.894Z,7.59
2022-12-08T00:17:04.418Z,7.88
2022-12-08T00:19:33.111Z,8.08
2022-12-08T00:22:00.034Z,8.13
2022-12-08T00:24:33.418Z,8.48
2022-12-08T00:27:00.384Z,8.36
2022-12-08T00:29:27.571Z,8.46
2022-12-08T00:31:54.461Z,8.42
2022-12-08T00:34:21.391Z,6.96
2022-12-08T00:36:48.945Z,7.40
2022-12-08T00:39:17.889Z,6.96
2022-12-08T00:42:03.584Z,6.40
2022-12-08T00:44:30.334Z,4.14
2022-12-08T00:46:57.304Z,4.86
2022-12-08T00:49:24.049Z,7.78
2022-12-08T00:51:50.904Z,7.41
2022-12-08T00:54:19.047Z,7.65
2022-12-08T00:56:46.545Z,6.61
2022-12-08T00:59:14.418Z,7.76
2022-12-08T01:01:41.606Z,7.68
2022-12-08T01:04:11.910Z,7.50
2022-12-08T01:06:39.418Z,6.33
2022-12-08T01:09:07.774Z,5.09
2022-12-08T01:11:36.152Z,6.09
2022-12-08T01:14:04.117Z,7.83
2022-12-08T01:16:34.294Z,6.76
2022-12-08T01:19:01.775Z,5.06
2022-12-08T01:21:29.308Z,6.76
2022-12-08T01:23:56.278Z,6.94
2022-12-08T01:26:23.025Z,7.79
2022-12-08T01:28:49.795Z,7.90
2022-12-08T01:31:21.370Z,8.11
2022-12-08T01:33:49.252Z,6.38
2022-12-08T01:36:25.177Z,6.50
2022-12-08T01:38:52.942Z,8.34
2022-12-08T01:41:22.758Z,7.76
2022-12-08T01:44:24.819Z,8.05
2022-12-08T01:46:53.684Z,8.51
2022-12-08T01:49:31.125Z,8.75
2022-12-08T01:52:25.790Z,8.74
2022-12-08T01:55:06.473Z,7.88
2022-12-08T01:57:55.872Z,8.54
2022-12-08T02:00:23.408Z,8.18
2022-12-08T02:02:56.588Z,8.55
2022-12-08T02:05:30.733Z,6.64
2022-12-08T02:07:58.762Z,6.79
2022-12-08T02:10:29.492Z,6.66
2022-12-08T02:12:58.357Z,7.68
2022-12-08T02:15:37.012Z,6.68
2022-12-08T02:18:28.184Z,8.26
2022-12-08T02:20:57.745Z,7.20
2022-12-08T02:23:33.901Z,7.59
2022-12-08T02:26:19.832Z,8.62
2022-12-08T02:29:08.231Z,8.35
2022-12-08T02:31:55.673Z,8.53
2022-12-08T02:34:40.320Z,7.46
2022-12-08T02:37:21.119Z,8.84
2022-12-08T02:40:07.249Z,9.07
2022-12-08T02:43:04.791Z,7.40
2022-12-08T02:46:02.456Z,8.00
2022-12-08T02:48:29.875Z,8.31
2022-12-08T02:50:56.618Z,8.11
2022-12-08T02:53:23.445Z,7.81
2022-12-08T02:56:01.618Z,7.50
2022-12-08T02:58:53.235Z,7.32
2022-12-08T03:02:05.900Z,5.27
2022-12-08T03:04:55.574Z,5.04
2022-12-08T03:07:40.358Z,7.58
2022-12-08T03:10:13.581Z,7.73
2022-12-08T03:12:58.349Z,7.15
2022-12-08T03:15:25.134Z,7.43
2022-12-08T03:17:56.933Z,7.52
2022-12-08T03:20:25.981Z,8.18
2022-12-08T03:22:55.917Z,7.20
2022-12-08T03:25:25.988Z,8.34
2022-12-08T03:27:53.864Z,7.49
2022-12-08T03:30:20.925Z,6.38
2022-12-08T03:33:04.316Z,8.14
2022-12-08T03:35:34.585Z,7.92
2022-12-08T03:38:10.829Z,8.58
2022-12-08T03:40:38.971Z,8.35
2022-12-08T03:43:06.337Z,8.10
2022-12-08T03:45:34.563Z,7.43
2022-12-08T03:48:01.449Z,6.88
2022-12-08T03:50:28.522Z,7.53
2022-12-08T03:52:55.325Z,7.54
2022-12-08T03:55:22.042Z,8.13
2022-12-08T03:57:49.633Z,8.84
2022-12-08T04:00:17.077Z,7.86
2022-12-08T04:02:44.095Z,7.68
2022-12-08T04:05:11.014Z,8.00
2022-12-08T04:07:37.907Z,8.22
2022-12-08T04:10:06.184Z,6.80
2022-12-08T04:12:33.166Z,7.58
2022-12-08T04:14:59.850Z,7.92
2022-12-08T04:17:26.618Z,8.11
2022-12-08T04:19:53.322Z,7.41
2022-12-08T04:22:21.366Z,8.36
2022-12-08T04:24:48.244Z,7.78
2022-12-08T04:27:14.968Z,7.58
2022-12-08T04:29:41.666Z,8.05
2022-12-08T04:32:08.285Z,7.56
2022-12-08T04:34:35.851Z,7.57
2022-12-08T04:37:02.579Z,8.08
2022-12-08T04:39:29.639Z,7.95
2022-12-08T04:41:56.379Z,7.98
2022-12-08T04:44:23.130Z,8.02
2022-12-08T04:46:50.067Z,7.24
2022-12-08T04:49:16.789Z,7.25
2022-12-08T04:51:43.533Z,7.11
2022-12-08T04:54:10.213Z,7.09
2022-12-08T04:56:37.090Z,7.23
2022-12-08T04:59:05.115Z,6.67
2022-12-08T05:01:32.173Z,6.75
2022-12-08T05:03:59.080Z,7.78
2022-12-08T05:06:25.945Z,7.56
2022-12-08T05:08:52.728Z,7.88
2022-12-08T05:11:20.243Z,6.26
2022-12-08T05:13:47.560Z,7.89
2022-12-08T05:16:15.967Z,7.70
2022-12-08T05:18:43.423Z,7.80
2022-12-08T05:21:10.578Z,8.19
2022-12-08T05:23:37.319Z,7.52
2022-12-08T05:26:05.540Z,6.46
2022-12-08T05:28:42.618Z,7.41
2022-12-08T05:31:11.753Z,7.34
2022-12-08T05:33:38.628Z,7.08
2022-12-08T05:36:06.908Z,7.71
2022-12-08T05:38:34.011Z,6.91
2022-12-08T05:41:00.717Z,6.93
2022-12-08T05:43:27.535Z,7.64
2022-12-08T05:45:54.341Z,7.56
2022-12-08T05:48:21.921Z,7.53
2022-12-08T05:50:50.748Z,5.70
2022-12-08T05:53:20.449Z,6.73
2022-12-08T05:55:47.804Z,6.91
2022-12-08T05:58:20.921Z,6.63
2022-12-08T06:00:48.886Z,5.48
2022-12-08T06:03:17.994Z,6.42
2022-12-08T06:05:46.306Z,6.51
2022-12-08T06:08:13.646Z,6.46
2022-12-08T06:10:42.428Z,7.08
2022-12-08T06:13:09.174Z,6.16
2022-12-08T06:15:38.638Z,6.75
2022-12-08T06:18:07.153Z,5.98
2022-12-08T06:20:36.073Z,6.57
2022-12-08T06:23:03.870Z,6.58
2022-12-08T06:25:30.796Z,6.64
2022-12-08T06:27:57.533Z,6.10
2022-12-08T06:30:24.232Z,6.56
2022-12-08T06:32:51.076Z,6.36
2022-12-08T06:35:17.875Z,6.21
2022-12-08T06:37:44.565Z,6.24
2022-12-08T06:40:11.897Z,5.12
2022-12-08T06:42:44.233Z,6.20
2022-12-08T06:45:13.002Z,6.44
2022-12-08T06:47:40.148Z,6.14
2022-12-08T06:50:10.412Z,6.26
2022-12-08T06:52:44.067Z,5.08
2022-12-08T06:55:35.284Z,5.30
2022-12-08T06:58:00.940Z,5.58
2022-12-08T07:00:27.607Z,5.53
2022-12-08T07:02:54.460Z,4.98
2022-12-08T07:05:21.286Z,6.14
2022-12-08T07:07:48.028Z,5.67
2022-12-08T07:10:14.760Z,4.80
2022-12-08T07:12:41.425Z,5.69
2022-12-08T07:15:08.781Z,4.21
2022-12-08T07:17:36.186Z,3.74
2022-12-08T07:20:03.846Z,5.15
2022-12-08T07:22:30.906Z,5.97
2022-12-08T07:24:57.616Z,5.62
2022-12-08T07:27:24.418Z,6.53
2022-12-08T07:29:51.637Z,6.67
2022-12-08T07:32:18.378Z,6.82
2022-12-08T07:34:47.277Z,6.57
2022-12-08T07:37:14.294Z,4.66
2022-12-08T07:39:41.475Z,5.86
2022-12-08T07:42:08.578Z,6.35
2022-12-08T07:44:38.132Z,6.71
2022-12-08T07:47:05.117Z,4.02
2022-12-08T07:49:31.886Z,5.79
2022-12-08T07:51:58.705Z,6.07
2022-12-08T07:54:25.351Z,6.13
2022-12-08T07:56:52.882Z,6.41
2022-12-08T07:59:21.738Z,4.59
2022-12-08T08:02:05.076Z,4.47
2022-12-08T08:04:37.103Z,4.93
2022-12-08T08:07:03.871Z,6.57
2022-12-08T08:09:30.607Z,6.02
2022-12-08T08:12:28.899Z,6.12
2022-12-08T08:14:44.337Z,10.06
2022-12-08T08:17:11.741Z,6.55
2022-12-08T08:19:38.663Z,11.33
2022-12-08T08:22:05.406Z,8.45
2022-12-08T08:24:32.160Z,8.93
2022-12-08T08:26:58.961Z,11.04
2022-12-08T08:29:25.927Z,10.73
2022-12-08T08:31:53.639Z,13.16
2022-12-08T08:34:20.393Z,13.57
2022-12-08T08:36:47.293Z,10.38
2022-12-08T08:39:14.432Z,14.63
2022-12-08T08:41:41.690Z,15.27
2022-12-08T08:44:08.843Z,15.56
2022-12-08T08:46:35.681Z,14.93
2022-12-08T08:49:02.637Z,15.52
2022-12-08T08:51:29.368Z,13.00
2022-12-08T08:53:57.304Z,13.66
2022-12-08T08:56:24.326Z,14.57
2022-12-08T08:58:53.587Z,15.10
2022-12-08T09:01:24.781Z,13.99
2022-12-08T09:03:52.705Z,12.99
2022-12-08T09:06:20.482Z,14.45
2022-12-08T09:08:48.186Z,16.70
2022-12-08T09:11:15.410Z,15.33
2022-12-08T09:13:42.411Z,16.36
2022-12-08T09:16:11.105Z,14.14
2022-12-08T09:18:39.024Z,11.66
2022-12-08T09:21:09.013Z,13.43
2022-12-08T09:23:38.102Z,10.40
2022-12-08T09:26:05.743Z,15.10
2022-12-08T09:28:33.033Z,13.70
2022-12-08T09:31:00.302Z,15.17
2022-12-08T09:33:27.784Z,12.41
2022-12-08T09:35:54.698Z,11.79
2022-12-08T09:38:21.832Z,13.37
2022-12-08T09:40:53.381Z,11.72
2022-12-08T09:44:00.592Z,13.98
2022-12-08T09:46:30.656Z,12.74
2022-12-08T09:49:00.843Z,13.96
2022-12-08T09:51:33.925Z,15.26
2022-12-08T09:54:09.410Z,14.82
2022-12-08T09:56:38.553Z,16.14
2022-12-08T09:59:24.590Z,16.89
2022-12-08T10:01:52.067Z,18.43
2022-12-08T10:04:32.027Z,13.21
2022-12-08T10:07:21.020Z,17.14
2022-12-08T10:10:25.396Z,16.61
2022-12-08T10:13:11.685Z,16.72
2022-12-08T10:16:04.084Z,17.91
2022-12-08T10:18:33.059Z,17.90
2022-12-08T10:21:18.927Z,16.98
2022-12-08T10:23:52.288Z,15.10
2022-12-08T10:26:23.375Z,18.81
2022-12-08T10:28:51.122Z,16.23
2022-12-08T10:31:25.131Z,17.62
2022-12-08T10:34:13.660Z,15.14
2022-12-08T10:36:47.990Z,16.60
2022-12-08T10:39:33.259Z,18.29
2022-12-08T10:42:15.607Z,15.35
2022-12-08T10:44:57.340Z,15.14
2022-12-08T10:47:27.101Z,18.17
2022-12-08T10:50:21.227Z,18.18
2022-12-08T10:53:01.020Z,17.25
2022-12-08T10:55:29.725Z,18.64
2022-12-08T10:57:56.407Z,12.08
2022-12-08T11:00:28.476Z,15.62
2022-12-08T11:03:01.395Z,17.72
2022-12-08T11:05:34.952Z,16.16
2022-12-08T11:08:02.896Z,14.23
2022-12-08T11:10:44.831Z,9.83
2022-12-08T11:13:21.550Z,13.88
2022-12-08T11:15:49.468Z,11.77
2022-12-08T11:18:28.653Z,13.25
2022-12-08T11:20:59.818Z,11.81
2022-12-08T11:23:28.395Z,10.78
2022-12-08T11:26:02.837Z,11.17
2022-12-08T11:28:29.935Z,11.02
2022-12-08T11:31:07.849Z,10.03
2022-12-08T11:33:34.803Z,9.55
2022-12-08T11:36:12.915Z,11.66
2022-12-08T11:38:46.434Z,9.72
2022-12-08T11:41:17.970Z,9.81
2022-12-08T11:43:44.917Z,7.96
2022-12-08T11:46:25.341Z,9.18
2022-12-08T11:49:06.786Z,7.05
2022-12-08T11:51:38.185Z,13.11
2022-12-08T11:54:34.266Z,11.03
2022-12-08T11:57:03.153Z,7.16
2022-12-08T11:59:34.666Z,10.60
2022-12-08T12:02:04.769Z,10.39
2022-12-08T12:04:40.703Z,12.69
2022-12-08T12:07:26.644Z,10.87
2022-12-08T12:10:16.885Z,12.37
2022-12-08T12:13:05.401Z,12.14
2022-12-08T12:15:41.262Z,8.70
2022-12-08T12:18:30.341Z,10.25
2022-12-08T12:20:57.055Z,9.40
2022-12-08T12:23:38.481Z,8.68
2022-12-08T12:26:08.500Z,6.69
2022-12-08T12:28:58.075Z,9.71
2022-12-08T12:31:41.625Z,12.17
2022-12-08T12:34:14.708Z,6.76
2022-12-08T12:37:19.129Z,8.78
2022-12-08T12:39:52.402Z,6.42
2022-12-08T12:42:49.210Z,6.23
2022-12-08T12:45:22.231Z,6.16
2022-12-08T12:48:10.114Z,7.23
2022-12-08T12:50:46.942Z,6.68
2022-12-08T12:53:16.724Z,6.90
2022-12-08T12:55:46.625Z,8.39
2022-12-08T12:58:28.794Z,7.63
2022-12-08T13:01:08.799Z,6.09
2022-12-08T13:03:42.367Z,7.69
2022-12-08T13:06:15.094Z,7.60
2022-12-08T13:08:53.929Z,7.12
2022-12-08T13:11:26.152Z,7.21
2022-12-08T13:13:58.771Z,7.34
2022-12-08T13:16:28.819Z,6.88
2022-12-08T13:19:05.829Z,7.21
2022-12-08T13:21:38.702Z,7.44
2022-12-08T13:24:17.921Z,8.34
2022-12-08T13:27:03.767Z,8.43
2022-12-08T13:29:37.717Z,5.64
2022-12-08T13:32:04.472Z,8.65
2022-12-08T13:35:00.289Z,6.17
2022-12-08T13:37:53.972Z,8.32
2022-12-08T13:40:30.423Z,7.79
2022-12-08T13:43:28.245Z,7.32
2022-12-08T13:46:57.607Z,8.19
2022-12-08T13:50:31.285Z,9.63
2022-12-08T13:57:30.805Z,4.16
2022-12-08T14:00:14.828Z,2.92
2022-12-08T14:02:47.997Z,3.95
2022-12-08T14:05:34.865Z,4.40
2022-12-08T14:08:30.105Z,3.89
2022-12-08T14:11:05.268Z,5.68
2022-12-08T14:13:33.968Z,5.38
2022-12-08T14:16:00.946Z,4.32
2022-12-08T14:18:30.965Z,4.99
2022-12-08T14:21:21.369Z,4.01
2022-12-08T14:23:48.776Z,5.96
2022-12-08T14:26:15.947Z,5.87
2022-12-08T14:28:45.263Z,3.74
2022-12-08T14:31:14.762Z,7.07
2022-12-08T14:33:43.200Z,8.04
2022-12-08T14:36:14.602Z,5.80
2022-12-08T14:38:42.971Z,6.18
2022-12-08T14:41:12.552Z,7.63
2022-12-08T14:43:41.394Z,7.03
2022-12-08T14:46:22.709Z,7.20
2022-12-08T14:48:49.901Z,7.63
2022-12-08T14:51:19.323Z,7.24
2022-12-08T14:53:47.829Z,7.43
2022-12-08T14:56:23.235Z,6.03
2022-12-08T14:59:03.192Z,6.62
2022-12-08T15:01:31.100Z,7.23
2022-12-08T15:04:07.037Z,7.79
2022-12-08T15:06:34.042Z,8.09
2022-12-08T15:09:17.130Z,7.74
2022-12-08T15:11:44.040Z,8.09
2022-12-08T15:14:36.109Z,7.43
2022-12-08T15:17:03.774Z,7.68
2022-12-08T15:19:33.332Z,7.60
2022-12-08T15:22:19.673Z,7.31
2022-12-08T15:24:46.481Z,6.54
2022-12-08T15:27:21.704Z,7.26
2022-12-08T15:29:48.902Z,7.17
2022-12-08T15:32:23.960Z,7.23
2022-12-08T15:34:50.973Z,6.78
2022-12-08T15:37:22.597Z,6.67
2022-12-08T15:39:49.837Z,7.59
2022-12-08T15:42:16.784Z,7.80
2022-12-08T15:44:43.972Z,7.44
2022-12-08T15:47:16.767Z,6.28
2022-12-08T15:49:44.182Z,6.96
2022-12-08T15:52:28.985Z,7.13
2022-12-08T15:54:55.930Z,7.54
2022-12-08T15:58:10.934Z,7.58
2022-12-08T16:00:51.324Z,7.26
2022-12-08T16:07:12.470Z,7.28
2022-12-08T16:09:17.605Z,7.00
2022-12-08T16:12:07.267Z,7.16
2022-12-08T16:17:21.797Z,7.29
2022-12-08T16:19:49.582Z,7.25
2022-12-08T16:25:21.704Z,7.16
2022-12-08T16:28:12.301Z,7.09
2022-12-08T16:30:40.162Z,6.87
2022-12-08T16:33:07.063Z,7.20
2022-12-08T16:35:34.101Z,7.08
2022-12-08T16:38:01.109Z,6.81
2022-12-08T16:40:29.151Z,6.94
2022-12-08T16:42:55.898Z,7.22
2022-12-08T16:45:25.470Z,6.69
2022-12-08T16:48:00.646Z,6.84
2022-12-08T16:50:30.934Z,6.64
2022-12-08T16:53:06.979Z,6.74
2022-12-08T16:55:34.497Z,6.46
2022-12-08T16:58:02.709Z,6.88
2022-12-08T17:00:30.990Z,6.83
2022-12-08T17:02:59.102Z,6.49
2022-12-08T17:05:26.840Z,6.58
2022-12-08T17:07:54.903Z,6.83
2022-12-08T17:10:25.519Z,6.90
2022-12-08T17:12:53.357Z,6.45
2022-12-08T17:15:23.033Z,5.07
2022-12-08T17:17:50.402Z,5.98
2022-12-08T17:20:23.005Z,6.38
2022-12-08T17:22:50.483Z,6.09
2022-12-08T17:25:17.675Z,5.97
2022-12-08T17:27:44.447Z,4.96
2022-12-08T17:30:15.555Z,5.97
2022-12-08T17:32:43.945Z,6.46
2022-12-08T17:35:11.787Z,6.67
2022-12-08T17:37:40.976Z,5.87
2022-12-08T17:40:08.616Z,5.73
2022-12-08T17:42:35.514Z,5.27
2022-12-08T17:45:03.172Z,3.39
2022-12-08T17:47:30.074Z,4.14
2022-12-08T17:49:57.365Z,5.66
2022-12-08T17:52:24.940Z,6.19
2022-12-08T17:54:51.726Z,4.43
2022-12-08T17:57:18.472Z,6.21
2022-12-08T17:59:45.286Z,5.89
2022-12-08T18:02:12.578Z,5.72
2022-12-08T18:04:40.047Z,5.94
2022-12-08T18:07:06.783Z,6.11
2022-12-08T18:09:34.130Z,1.92
2022-12-08T18:12:00.888Z,2.43
2022-12-08T18:14:28.541Z,4.71
2022-12-08T18:16:55.455Z,5.58
2022-12-08T18:19:22.672Z,5.03
2022-12-08T18:21:49.490Z,2.86
2022-12-08T18:24:19.603Z,3.71
2022-12-08T18:26:47.153Z,4.53
2022-12-08T18:29:14.760Z,3.64
2022-12-08T18:31:41.519Z,4.12
2022-12-08T18:34:08.365Z,4.91
2022-12-08T18:36:35.171Z,5.40
2022-12-08T18:39:07.192Z,5.50
2022-12-08T18:41:37.136Z,5.37
2022-12-08T18:44:03.989Z,5.82
2022-12-08T18:46:30.792Z,5.22
2022-12-08T18:48:58.127Z,4.94
2022-12-08T18:51:25.434Z,3.29
2022-12-08T18:53:53.142Z,3.79
2022-12-08T18:56:32.040Z,4.57
2022-12-08T18:59:03.835Z,4.34
2022-12-08T19:01:36.754Z,4.82
2022-12-08T19:06:54.208Z,4.89
2022-12-08T19:09:21.426Z,5.07
2022-12-08T19:11:48.775Z,3.16
2022-12-08T19:14:15.753Z,1.00
2022-12-08T19:16:42.663Z,1.26
2022-12-08T19:19:09.889Z,3.57
2022-12-08T19:21:44.548Z,3.73
2022-12-08T19:24:13.313Z,4.30
2022-12-08T19:26:40.783Z,4.12
2022-12-08T19:29:07.631Z,3.32
2022-12-08T19:31:35.143Z,4.57
2022-12-08T19:34:01.905Z,4.26
2022-12-08T19:36:35.473Z,0.81
2022-12-08T19:39:23.583Z,1.87
2022-12-08T19:42:09.410Z,4.20
2022-12-08T19:44:54.461Z,4.10
2022-12-08T19:47:24.456Z,4.15
2022-12-08T19:49:53.944Z,3.72
2022-12-08T19:52:21.093Z,1.49
2022-12-08T19:54:47.942Z,1.07
2022-12-08T19:57:16.310Z,2.91
2022-12-08T19:59:43.178Z,4.03
2022-12-08T20:02:11.357Z,2.81
2022-12-08T20:04:38.456Z,3.57
2022-12-08T20:07:05.719Z,3.73
2022-12-08T20:09:33.218Z,3.65
2022-12-08T20:12:02.004Z,3.08
2022-12-08T20:14:29.134Z,0.12
2022-12-08T20:16:56.555Z,2.26
2022-12-08T20:19:23.357Z,3.38
2022-12-08T20:21:50.274Z,2.01
2022-12-08T20:24:17.443Z,2.40
2022-12-08T20:26:45.159Z,2.19
2022-12-08T20:29:17.160Z,3.97
2022-12-08T20:31:45.619Z,4.36
2022-12-08T20:34:17.740Z,2.58
2022-12-08T20:36:46.768Z,4.23
2022-12-08T20:39:16.615Z,3.28
2022-12-08T20:41:45.628Z,3.52
2022-12-08T20:44:12.872Z,3.34
2022-12-08T20:46:41.781Z,3.53
2022-12-08T20:49:10.570Z,3.82
2022-12-08T20:51:37.301Z,3.16
2022-12-08T20:54:09.886Z,2.77
2022-12-08T20:56:36.795Z,3.10
2022-12-08T20:59:03.910Z,3.11
2022-12-08T21:01:32.147Z,2.65
2022-12-08T21:03:59.223Z,3.21
2022-12-08T21:06:28.209Z,2.93
2022-12-08T21:08:55.174Z,2.85
2022-12-08T21:11:22.200Z,3.29
2022-12-08T21:13:49.385Z,3.25
2022-12-08T21:16:17.398Z,3.32
2022-12-08T21:18:44.353Z,3.08
2022-12-08T21:21:14.316Z,2.92
2022-12-08T21:23:43.180Z,1.91
2022-12-08T21:26:19.083Z,2.34
2022-12-08T21:28:47.902Z,2.24
2022-12-08T21:31:19.398Z,2.97
2022-12-08T21:33:47.698Z,2.86
2022-12-08T21:36:17.753Z,0.14
2022-12-08T21:38:46.890Z,2.01
2022-12-08T21:41:37.961Z,1.70
2022-12-08T21:44:06.346Z,3.25
2022-12-08T21:46:33.287Z,3.50
2022-12-08T21:49:01.220Z,1.79
2022-12-08T21:51:28.651Z,2.87
2022-12-08T21:53:55.383Z,2.38
2022-12-08T21:56:22.813Z,0.20
2022-12-08T21:58:50.076Z,1.40
2022-12-08T22:01:17.612Z,3.48
2022-12-08T22:03:44.665Z,1.92
2022-12-08T22:06:13.841Z,2.90
2022-12-08T22:08:41.825Z,3.87
2022-12-08T22:11:11.381Z,2.99
2022-12-08T22:13:39.777Z,2.23
2022-12-08T22:16:09.462Z,2.54
2022-12-08T22:18:37.188Z,2.00
2022-12-08T22:21:17.136Z,2.83
2022-12-08T22:23:44.505Z,3.22
2022-12-08T22:26:12.643Z,1.45
2022-12-08T22:28:41.665Z,1.69
2022-12-08T22:31:15.081Z,3.01
2022-12-08T22:33:42.850Z,1.85
2022-12-08T22:36:19.784Z,3.20
2022-12-08T22:38:48.324Z,1.45
2022-12-08T22:41:17.245Z,3.40
2022-12-08T22:43:45.314Z,3.54
2022-12-08T22:46:18.142Z,3.57
2022-12-08T22:48:45.640Z,3.23
2022-12-08T22:51:14.244Z,0.82
2022-12-08T22:53:41.822Z,1.88
2022-12-08T22:56:11.791Z,0.58
2022-12-08T22:58:39.929Z,0.22
2022-12-08T23:01:08.465Z,1.55
2022-12-08T23:03:35.604Z,2.78
2022-12-08T23:06:13.034Z,3.07
2022-12-08T23:08:40.708Z,2.53
2022-12-08T23:11:07.854Z,3.59
2022-12-08T23:13:34.653Z,2.64
2022-12-08T23:16:02.737Z,3.27
2022-12-08T23:18:29.503Z,1.62
2022-12-08T23:20:56.264Z,1.30
2022-12-08T23:23:23.169Z,3.09
2022-12-08T23:25:49.965Z,2.86
2022-12-08T23:28:18.125Z,2.07
2022-12-08T23:30:44.964Z,2.93
2022-12-08T23:33:12.083Z,2.93
2022-12-08T23:35:39.823Z,1.96
2022-12-08T23:38:07.102Z,1.67
2022-12-08T23:40:34.266Z,0.08
2022-12-08T23:43:01.225Z,0.97
2022-12-08T23:45:29.747Z,2.74
2022-12-08T23:47:56.604Z,3.38
2022-12-08T23:50:23.999Z,2.03
2022-12-08T23:52:50.934Z,1.45
2022-12-08T23:55:18.909Z,-0.59
2022-12-08T23:57:45.589Z,-1.20
